Time;durP1;ratioP1;P1;durP2;ratioP2;P2;SDS_P1;SDS_P2;PMS_P1;PMS_P2;Temp;Humidity;BMP_temperature;BMP_pressure;BME280_temperature;BME280_humidity;BME280_pressure;Samples;Min_cycle;Max_cycle;Signal;HPM_P1;HPM_P2
2023/06/01 00:07:50;;;;;;;0.82;0.50;;;;;;;;;;20565952;28;20223;-69
2023/06/01 00:17:52;;;;;;;0.97;0.60;;;;;;;;;;20590487;28;20288;-69
2023/06/01 00:27:54;;;;;;;1.88;1.02;;;;;;;;;;20564069;28;20593;-68
2023/06/01 00:37:57;;;;;;;0.85;0.60;;;;;;;;;;20531775;28;20289;-68
2023/06/01 00:47:59;;;;;;;2.93;0.70;;;;;;;;;;20594030;23;20255;-66
2023/06/01 00:58:01;;;;;;;1.30;0.60;;;;;;;;;;20562235;28;20230;-67
2023/06/01 01:08:31;;;;;;;2.03;0.70;;;22.10;86.20;;;;;;20577977;28;20280;-68
2023/06/01 01:18:37;;;;;;;2.20;0.80;;;;;;;;;;20605607;28;20662;-68
2023/06/01 01:28:56;;;;;;;2.17;0.70;;;21.90;98.50;;;;;;20562321;28;20240;-70
2023/06/01 01:38:58;;;;;;;0.60;0.60;;;;;;;;;;20550008;28;20683;-66
2023/06/01 01:49:19;;;;;;;1.20;0.60;;;;;;;;;;20558940;28;20587;-67
2023/06/01 01:59:21;;;;;;;2.47;0.67;;;;;;;;;;20552116;28;20224;-67
2023/06/01 02:09:23;;;;;;;1.50;0.70;;;;;;;;;;20558421;28;20596;-67
2023/06/01 02:19:25;;;;;;;1.17;0.73;;;;;;;;;;20553148;28;20230;-67
2023/06/01 02:29:27;;;;;;;1.93;0.67;;;;;;;;;;20523428;28;20224;-67
2023/06/01 02:39:29;;;;;;;1.63;0.67;;;;;;;;;;20572683;28;20275;-67
2023/06/01 02:49:31;;;;;;;1.20;0.70;;;;;;;;;;20571230;28;20231;-67
2023/06/01 02:59:33;;;;;;;2.03;0.60;;;;;;;;;;20570687;28;20212;-67
2023/06/01 03:09:38;;;;;;;2.17;0.90;;;;;;;;;;20557966;28;20235;-67
2023/06/01 03:19:48;;;;;;;1.70;0.80;;;;;;;;;;20573928;28;20218;-67
2023/06/01 03:29:57;;;;;;;0.60;0.40;;;;;;;;;;20550230;28;20244;-67
2023/06/01 03:39:58;;;;;;;1.27;0.70;;;;;;;;;;20555811;28;20642;-67
2023/06/01 03:50:08;;;;;;;1.50;0.93;;;20.20;99.90;;;;;;20551126;28;20234;-67
2023/06/01 04:00:20;;;;;;;3.40;0.70;;;;;;;;;;20570421;28;20224;-67
2023/06/01 04:10:27;;;;;;;1.37;0.60;;;;;;;;;;20552564;28;20296;-67
2023/06/01 04:20:31;;;;;;;0.90;0.57;;;;;;;;;;20562143;28;20230;-67
2023/06/01 04:30:33;;;;;;;1.50;0.80;;;;;;;;;;20563714;28;20221;-67
2023/06/01 04:40:35;;;;;;;2.30;0.80;;;;;;;;;;20532424;28;20277;-67
2023/06/01 04:50:38;;;;;;;2.13;1.00;;;;;;;;;;20577474;28;20647;-67
2023/06/01 05:00:40;;;;;;;4.20;0.90;;;;;;;;;;20540016;28;20226;-67
2023/06/01 05:10:42;;;;;;;1.77;0.70;;;;;;;;;;20547605;28;20289;-68
2023/06/01 05:20:43;;;;;;;4.67;0.70;;;;;;;;;;20553999;28;20283;-68
2023/06/01 05:30:45;;;;;;;1.43;0.70;;;;;;;;;;20547957;28;20705;-68
2023/06/01 05:40:47;;;;;;;1.00;0.60;;;;;;;;;;20558536;28;20254;-68
2023/06/01 05:50:49;;;;;;;1.90;0.90;;;;;;;;;;20526973;28;20229;-68
2023/06/01 06:00:52;;;;;;;4.77;0.93;;;;;;;;;;20558498;28;20619;-68
2023/06/01 06:10:54;;;;;;;1.73;0.73;;;;;;;;;;20575027;28;20239;-67
2023/06/01 06:20:56;;;;;;;1.50;0.70;;;;;;;;;;20549461;28;20229;-67
2023/06/01 06:30:58;;;;;;;1.73;0.70;;;21.10;99.90;;;;;;20547224;28;20227;-67
2023/06/01 06:41:01;;;;;;;3.50;0.70;;;;;;;;;;20588050;28;20281;-68
2023/06/01 06:51:03;;;;;;;1.20;0.63;;;;;;;;;;20590726;23;20305;-68
2023/06/01 07:01:05;;;;;;;1.73;1.00;;;;;;;;;;20601947;28;20235;-68
2023/06/01 07:11:06;;;;;;;1.67;0.93;;;;;;;;;;20582483;28;20296;-67
2023/06/01 07:21:08;;;;;;;1.50;0.80;;;;;;;;;;20581883;28;20209;-68
2023/06/01 07:31:10;;;;;;;1.40;0.90;;;;;;;;;;20626764;28;20275;-68
2023/06/01 07:41:12;;;;;;;2.50;0.90;;;;;;;;;;20661009;28;20299;-68
2023/06/01 07:51:14;;;;;;;1.93;0.80;;;;;;;;;;20583657;28;20240;-68
2023/06/01 08:01:17;;;;;;;1.10;0.70;;;23.60;99.90;;;;;;20581372;28;20230;-67
2023/06/01 08:11:21;;;;;;;5.17;0.80;;;;;;;;;;20547830;28;20216;-68
2023/06/01 08:21:24;;;;;;;1.88;0.93;;;;;;;;;;20552487;28;20213;-67
2023/06/01 08:31:26;;;;;;;1.23;0.65;;;;;;;;;;20540259;28;20223;-68
2023/06/01 08:41:28;;;;;;;1.15;0.55;;;;;;;;;;20536975;28;20216;-68
2023/06/01 08:51:33;;;;;;;3.00;0.80;;;;;;;;;;20539519;28;20217;-68
2023/06/01 09:01:35;;;;;;;1.20;0.55;;;24.70;88.10;;;;;;20569667;28;20224;-68
2023/06/01 09:11:36;;;;;;;1.33;0.70;;;;;;;;;;20544363;28;20347;-69
2023/06/01 09:21:38;;;;;;;2.85;0.60;;;;;;;;;;20548711;28;20222;-69
2023/06/01 09:31:47;;;;;;;2.95;0.77;;;25.70;87.40;;;;;;20571158;28;20289;-69
2023/06/01 09:41:52;;;;;;;1.38;0.80;;;;;;;;;;20561943;28;20282;-69
2023/06/01 09:52:06;;;;;;;1.75;0.68;;;;;;;;;;20577228;28;20284;-68
2023/06/01 10:02:15;;;;;;;1.85;0.60;;;26.30;86.50;;;;;;20538419;28;20261;-68
2023/06/01 10:12:18;;;;;;;2.25;0.80;;;;;;;;;;20588582;28;20258;-69
2023/06/01 10:22:20;;;;;;;3.42;0.73;;;;;;;;;;20586236;28;20214;-69
2023/06/01 10:32:37;;;;;;;1.83;0.70;;;;;;;;;;20549501;28;20226;-68
2023/06/01 10:42:39;;;;;;;1.80;0.80;;;;;;;;;;20558338;28;20215;-68
2023/06/01 10:52:42;;;;;;;1.08;0.55;;;;;;;;;;20592461;28;20310;-69
2023/06/01 11:03:00;;;;;;;3.15;0.70;;;;;;;;;;20558745;28;20220;-69
2023/06/01 11:13:18;;;;;;;1.27;0.63;;;;;;;;;;20577197;28;20243;-68
2023/06/01 11:23:21;;;;;;;0.68;0.40;;;;;;;;;;20539265;28;20282;-69
2023/06/01 11:33:23;;;;;;;2.20;0.80;;;;;;;;;;20617423;28;20811;-69
2023/06/01 11:43:29;;;;;;;0.85;0.60;;;;;;;;;;20550319;28;20262;-68
2023/06/01 11:53:34;;;;;;;2.33;0.80;;;28.90;72.30;;;;;;20553675;28;20705;-69
2023/06/01 12:03:45;;;;;;;2.83;0.90;;;28.70;73.10;;;;;;20585479;28;20224;-69
2023/06/01 12:13:48;;;;;;;0.85;0.50;;;;;;;;;;20565889;28;20223;-69
2023/06/01 12:23:53;;;;;;;2.65;0.77;;;;;;;;;;20568853;28;20709;-69
2023/06/01 12:33:55;;;;;;;1.17;0.65;;;;;;;;;;20580959;28;20228;-70
2023/06/01 12:43:57;;;;;;;4.35;1.08;;;;;;;;;;20605878;28;20791;-69
2023/06/01 12:54:05;;;;;;;1.83;0.70;;;;;;;;;;20637645;28;20720;-69
2023/06/01 13:04:08;;;;;;;1.33;0.60;;;;;;;;;;20575090;28;20277;-69
2023/06/01 13:14:10;;;;;;;1.13;0.52;;;;;;;;;;20560575;28;20772;-68
2023/06/01 13:24:12;;;;;;;1.13;0.65;;;;;;;;;;20571026;28;20289;-68
2023/06/01 13:34:14;;;;;;;0.63;0.50;;;;;;;;;;20674087;23;20235;-71
2023/06/01 13:44:17;;;;;;;1.20;0.52;;;;;;;;;;20643189;28;20232;-70
2023/06/01 13:54:19;;;;;;;0.90;0.52;;;;;;;;;;20610084;28;20368;-71
2023/06/01 14:04:24;;;;;;;1.05;0.50;;;;;;;;;;20627592;28;20294;-71
2023/06/01 14:14:26;;;;;;;0.85;0.50;;;;;;;;;;20624618;28;20221;-70
2023/06/01 14:24:27;;;;;;;3.88;0.80;;;;;;;;;;20641451;28;20635;-71
2023/06/01 14:34:29;;;;;;;1.52;0.60;;;;;;;;;;20601137;28;20238;-70
2023/06/01 14:44:31;;;;;;;1.10;0.60;;;;;;;;;;20586006;28;20543;-71
2023/06/01 14:54:33;;;;;;;1.77;0.60;;;;;;;;;;20633869;28;20223;-70
2023/06/01 15:04:35;;;;;;;2.35;0.63;;;;;;;;;;20582505;28;20259;-70
2023/06/01 15:14:36;;;;;;;1.27;0.60;;;;;;;;;;20582712;28;20228;-70
2023/06/01 15:24:40;;;;;;;0.82;0.40;;;;;;;;;;20631886;28;20236;-70
2023/06/01 15:34:42;;;;;;;0.88;0.45;;;;;;;;;;20604916;28;20252;-70
2023/06/01 15:44:43;;;;;;;0.85;0.50;;;31.00;67.80;;;;;;20594644;28;20222;-70
2023/06/01 15:54:46;;;;;;;0.80;0.50;;;;;;;;;;20640877;28;20232;-71
2023/06/01 16:04:48;;;;;;;0.60;0.40;;;;;;;;;;20596321;28;20217;-71
2023/06/01 16:14:49;;;;;;;2.17;0.65;;;;;;;;;;20578020;28;20279;-70
2023/06/01 16:24:51;;;;;;;1.00;0.55;;;;;;;;;;20573959;28;20225;-70
2023/06/01 16:34:53;;;;;;;2.85;0.60;;;;;;;;;;20576412;28;20267;-70
2023/06/01 16:44:55;;;;;;;1.83;1.35;;;;;;;;;;20638607;28;20685;-70
2023/06/01 16:54:57;;;;;;;1.55;0.57;;;;;;;;;;20635006;28;20232;-71
2023/06/01 17:04:58;;;;;;;2.47;0.90;;;;;;;;;;20635942;28;20241;-71
2023/06/01 17:15:00;;;;;;;0.65;0.43;;;;;;;;;;20609333;28;20250;-71
2023/06/01 17:25:03;;;;;;;0.90;0.60;;;;;;;;;;20634293;28;20592;-70
2023/06/01 17:35:05;;;;;;;2.95;1.08;;;;;;;;;;20653966;28;20215;-71
2023/06/01 17:45:09;;;;;;;2.88;1.00;;;;;;;;;;20653351;28;20214;-70
2023/06/01 17:55:10;;;;;;;1.60;1.20;;;;;;;;;;20649386;28;20278;-71
2023/06/01 18:05:13;;;;;;;2.85;1.60;;;;;;;;;;20662184;28;20228;-71
2023/06/01 18:15:14;;;;;;;2.40;1.50;;;;;;;;;;20650488;28;20223;-70
2023/06/01 18:25:16;;;;;;;2.72;1.98;;;;;;;;;;20613468;28;20216;-71
2023/06/01 18:35:18;;;;;;;2.85;2.08;;;;;;;;;;20640442;28;20297;-71
2023/06/01 18:45:20;;;;;;;2.72;1.88;;;;;;;;;;20643798;28;20223;-71
2023/06/01 18:55:22;;;;;;;2.63;1.77;;;;;;;;;;20568927;28;20256;-71
2023/06/01 19:05:24;;;;;;;4.00;1.92;;;28.00;79.90;;;;;;20578805;28;20224;-71
2023/06/01 19:15:26;;;;;;;3.20;1.70;;;;;;;;;;20637777;28;20231;-70
2023/06/01 19:25:28;;;;;;;3.25;2.00;;;;;;;;;;20649546;28;20229;-70
2023/06/01 19:35:30;;;;;;;3.63;2.08;;;;;;;;;;20619786;28;20225;-71
2023/06/01 19:45:32;;;;;;;2.55;1.77;;;;;;;;;;20588867;28;20841;-70
2023/06/01 19:55:34;;;;;;;3.45;2.20;;;;;;;;;;20582121;28;20222;-70
2023/06/01 20:05:36;;;;;;;4.05;1.92;;;;;;;;;;20621412;28;20684;-71
2023/06/01 20:15:43;;;;;;;3.30;1.77;;;26.90;84.40;;;;;;20643002;28;20244;-70
2023/06/01 20:25:44;;;;;;;3.25;2.08;;;26.70;77.30;;;;;;20660137;28;20230;-70
2023/06/01 20:35:46;;;;;;;2.78;1.70;;;;;;;;;;20631501;28;20289;-70
2023/06/01 20:45:59;;;;;;;5.07;2.03;;;;;;;;;;20606735;28;20215;-70
2023/06/01 20:56:00;;;;;;;4.90;1.88;;;;;;;;;;20809901;28;20224;-70
2023/06/01 21:06:02;;;;;;;4.10;1.88;;;;;;;;;;20798845;28;20213;-71
2023/06/01 21:16:04;;;;;;;2.85;1.50;;;;;;;;;;20812311;28;20267;-70
2023/06/01 21:26:06;;;;;;;3.72;1.67;;;;;;;;;;20806316;28;20280;-70
2023/06/01 21:36:08;;;;;;;3.60;1.50;;;;;;;;;;20803767;23;20240;-68
2023/06/01 21:46:10;;;;;;;1.80;1.30;;;;;;;;;;20760743;28;20216;-68
2023/06/01 21:56:12;;;;;;;3.97;1.95;;;;;;;;;;20766723;28;20256;-70
2023/06/01 22:06:14;;;;;;;1.92;1.50;;;;;;;;;;20782145;28;20231;-70
2023/06/01 22:16:15;;;;;;;2.63;1.50;;;;;;;;;;20781846;28;20216;-71
2023/06/01 22:26:17;;;;;;;2.53;1.40;;;;;;;;;;20781253;28;20281;-68
2023/06/01 22:36:20;;;;;;;3.17;1.33;;;;;;;;;;20797335;28;20294;-70
2023/06/01 22:46:21;;;;;;;2.17;1.63;;;;;;;;;;20781164;28;20251;-71
2023/06/01 22:56:25;;;;;;;3.65;1.60;;;;;;;;;;20781938;28;20528;-70
2023/06/01 23:06:27;;;;;;;2.38;1.55;;;;;;;;;;20794563;28;20282;-70
2023/06/01 23:16:32;;;;;;;2.22;1.23;;;;;;;;;;20797727;28;20276;-69
2023/06/01 23:26:34;;;;;;;2.33;1.27;;;;;;;;;;20797390;28;20747;-69
2023/06/01 23:36:36;;;;;;;2.30;1.42;;;;;;;;;;20791518;28;20252;-70
2023/06/01 23:46:40;;;;;;;3.50;1.52;;;;;;;;;;20774940;28;20332;-69
2023/06/01 23:56:42;;;;;;;2.10;1.40;;;;;;;;;;20778388;28;20244;-70
